Rechercher aéroport 
image banner adimage banner adimage banner ad
image banner ad

5CL4 - Natividad Medical Center

Situé à Salinas, United States

ICAO - 5CL4, IATA -

Données fournies par Airmate  

Information générale

Coordonnées: N36°41'51" W121°38'4"
Élévation : 70 feet MSL.
Variation magnétique : 13° East
Voir autres Aéroports à California

Données opérationnelles

Special qualification required
Heure actuelle UTC:
Heure actuelle locale:
Météo à : KSNS - Salinas Muni ( 5 km )
METAR: KSNS 251553Z 00000KT 10SM OVC007 14/12 A2999 RMK AO2 SLP165 T01440117
TAF: KSNS 251121Z 2512/2612 VRB05KT 6SM BR OVC005 FM251700 30006KT P6SM SCT010 FM252100 31013KT P6SM SCT200 FM260200 32008KT P6SM OVC008 FM260400 VRB05KT 6SM BR OVC005
Voir NOTAMs / SUP AIP / TFR affectant cet aéroport [VIEW]
Fréquences de communication: [VIEW]

Pistes:

Coordonnées de l'aéroport

Adresse: Salinas United States

Vue satellite de 5CL4